Time;durP1;ratioP1;P1;durP2;ratioP2;P2;SDS_P1;SDS_P2;PMS_P1;PMS_P2;Temp;Humidity;BMP_temperature;BMP_pressure;BME280_temperature;BME280_humidity;BME280_pressure;Samples;Min_cycle;Max_cycle;Signal;HPM_P1;HPM_P2
2022/10/15 00:01:46;;;;;;;6.60;6.15;;;10.50;77.60;;;;;;5012593;28;20112;-73
2022/10/15 00:04:12;;;;;;;6.53;6.13;;;10.50;77.60;;;;;;5012769;28;20029;-74
2022/10/15 00:06:37;;;;;;;5.80;5.50;;;10.50;77.60;;;;;;5012444;28;20124;-74
2022/10/15 00:09:04;;;;;;;5.05;4.75;;;10.50;77.60;;;;;;5030512;28;20096;-71
2022/10/15 00:11:30;;;;;;;5.50;5.20;;;10.50;77.60;;;;;;5030004;28;20341;-71
2022/10/15 00:13:57;;;;;;;;;;;10.60;77.70;;;;;;5012661;28;20153;-71
2022/10/15 00:16:26;;;;;;;4.10;3.80;;;10.60;77.70;;;;;;5029828;28;19955;-72
2022/10/15 00:18:54;;;;;;;4.72;4.43;;;10.60;77.60;;;;;;5029853;28;20068;-71
2022/10/15 00:21:20;;;;;;;4.03;3.72;;;10.70;77.70;;;;;;5029848;28;20018;-71
2022/10/15 00:23:46;;;;;;;3.97;3.67;;;10.70;77.70;;;;;;5030044;28;20029;-71
2022/10/15 00:26:19;;;;;;;3.80;3.50;;;10.80;77.90;;;;;;5030041;28;20107;-71
2022/10/15 00:28:46;;;;;;;4.03;3.72;;;10.90;77.90;;;;;;5029929;28;20021;-70
2022/10/15 00:31:15;;;;;;;3.40;3.15;;;11.10;77.90;;;;;;5029877;28;20032;-71
2022/10/15 00:33:41;;;;;;;3.40;3.10;;;11.20;77.80;;;;;;5012036;28;20034;-71
2022/10/15 00:36:14;;;;;;;3.50;3.20;;;11.30;77.80;;;;;;5029705;28;20021;-71
2022/10/15 00:38:41;;;;;;;3.08;2.88;;;11.40;77.80;;;;;;5011799;28;20104;-71
2022/10/15 00:41:11;;;;;;;3.20;3.00;;;11.40;77.60;;;;;;5011923;28;20064;-71
2022/10/15 00:43:40;;;;;;;2.90;2.70;;;11.50;77.70;;;;;;5011774;28;20033;-71
2022/10/15 00:46:16;;;;;;;2.70;2.50;;;11.50;77.60;;;;;;5011439;28;20039;-71
2022/10/15 00:48:45;;;;;;;3.00;2.80;;;11.50;77.60;;;;;;5011383;28;20344;-71
2022/10/15 00:51:11;;;;;;;2.88;2.67;;;11.60;77.70;;;;;;5029357;28;20041;-71
2022/10/15 00:53:36;;;;;;;2.95;2.75;;;11.50;77.60;;;;;;5011244;28;20399;-71
2022/10/15 00:56:03;;;;;;;3.03;2.83;;;11.50;77.60;;;;;;5029342;28;20034;-71
2022/10/15 00:58:31;;;;;;;2.97;2.78;;;11.50;77.80;;;;;;5029186;28;20480;-71
2022/10/15 01:00:57;;;;;;;3.30;3.10;;;11.60;77.90;;;;;;5011322;28;20078;-71
2022/10/15 01:03:23;;;;;;;3.60;3.30;;;11.70;77.90;;;;;;5029009;28;20490;-71
2022/10/15 01:05:51;;;;;;;3.67;3.38;;;11.70;77.90;;;;;;5029259;28;20044;-71
2022/10/15 01:08:17;;;;;;;3.40;3.20;;;11.80;77.80;;;;;;5029087;28;20030;-71
2022/10/15 01:11:00;;;;;;;3.92;3.63;;;11.90;77.90;;;;;;5029130;28;20059;-71
2022/10/15 01:13:45;;;;;;;3.40;3.10;;;11.90;77.90;;;;;;5029143;28;20037;-71
2022/10/15 01:16:35;;;;;;;3.83;3.53;;;11.90;77.80;;;;;;5029164;28;20033;-71
2022/10/15 01:19:07;;;;;;;3.50;3.20;;;11.90;77.80;;;;;;5028876;28;20014;-72
2022/10/15 01:21:53;;;;;;;3.33;3.10;;;12.00;77.90;;;;;;5029051;28;20165;-71
2022/10/15 01:24:54;;;;;;;3.60;3.30;;;12.00;77.90;;;;;;5029081;28;20017;-71
2022/10/15 01:27:51;;;;;;;3.53;3.22;;;12.00;78.00;;;;;;5028932;28;20109;-71
2022/10/15 01:30:41;;;;;;;3.50;3.20;;;12.00;77.90;;;;;;5028705;28;20030;-72
2022/10/15 01:33:38;;;;;;;3.70;3.40;;;12.00;77.90;;;;;;5028805;28;20033;-72
2022/10/15 01:36:38;;;;;;;3.60;3.30;;;12.10;78.50;;;;;;5028845;28;20021;-72
2022/10/15 01:39:19;;;;;;;3.45;3.20;;;12.10;78.00;;;;;;5028891;28;20491;-72
2022/10/15 01:42:00;;;;;;;3.30;3.10;;;12.10;77.90;;;;;;5028929;28;20025;-72
2022/10/15 01:44:41;;;;;;;3.45;3.15;;;12.10;77.90;;;;;;5028805;28;20024;-72
2022/10/15 01:47:17;;;;;;;3.30;3.10;;;12.10;77.90;;;;;;5028648;28;20475;-72
2022/10/15 01:49:45;;;;;;;3.28;3.05;;;12.10;77.90;;;;;;5028596;28;20036;-72
2022/10/15 01:52:18;;;;;;;3.65;3.35;;;12.10;77.90;;;;;;5028475;28;20387;-72
2022/10/15 01:54:46;;;;;;;3.80;3.50;;;12.20;78.00;;;;;;5028538;28;20404;-72
2022/10/15 01:57:13;;;;;;;3.80;3.50;;;12.20;78.00;;;;;;5028516;28;20053;-73
2022/10/15 01:59:42;;;;;;;3.97;3.67;;;12.20;78.00;;;;;;5028421;28;20018;-73
2022/10/15 02:02:08;;;;;;;3.80;3.50;;;12.30;78.00;;;;;;5027620;28;20033;-73
2022/10/15 02:04:34;;;;;;;4.43;4.13;;;12.30;78.00;;;;;;5028404;28;20450;-73
2022/10/15 02:06:59;;;;;;;4.97;4.68;;;12.30;78.00;;;;;;5028169;28;20068;-73
2022/10/15 02:09:56;;;;;;;4.55;4.25;;;12.30;78.00;;;;;;5028091;28;20503;-73
2022/10/15 02:12:41;;;;;;;4.78;4.47;;;12.30;77.90;;;;;;5028072;28;20380;-72
2022/10/15 02:15:22;;;;;;;5.05;4.75;;;12.30;77.90;;;;;;5010423;28;20061;-73
2022/10/15 02:18:05;;;;;;;5.57;5.28;;;12.30;77.90;;;;;;5027949;28;20034;-73
2022/10/15 02:20:40;;;;;;;5.68;5.38;;;12.30;77.90;;;;;;5028423;28;20018;-73
2022/10/15 02:23:34;;;;;;;6.45;6.05;;;12.30;77.90;;;;;;5027997;28;20480;-73
2022/10/15 02:26:04;;;;;;;7.35;6.95;;;12.30;77.90;;;;;;5001936;28;20075;-73
2022/10/15 02:28:32;;;;;;;8.75;8.35;;;12.30;77.80;;;;;;5027690;28;20053;-73
2022/10/15 02:31:00;;;;;;;8.63;8.23;;;12.20;77.80;;;;;;5028042;28;20049;-74
2022/10/15 02:33:28;;;;;;;9.20;8.80;;;12.20;77.80;;;;;;5010279;28;20044;-73
2022/10/15 02:35:56;;;;;;;13.95;13.35;;;12.10;77.80;;;;;;5010262;28;20317;-73
2022/10/15 02:38:24;;;;;;;16.10;15.40;;;12.00;77.70;;;;;;5027588;28;20095;-74
2022/10/15 02:40:51;;;;;;;21.45;20.60;;;12.00;77.70;;;;;;5027620;28;20476;-74
2022/10/15 02:43:19;;;;;;;25.25;24.25;;;11.90;77.60;;;;;;5027664;28;20037;-73
2022/10/15 02:45:45;;;;;;;32.40;31.20;;;11.80;77.60;;;;;;5027618;28;20030;-73
2022/10/15 02:48:11;;;;;;;26.23;25.23;;;11.70;77.50;;;;;;5027550;28;20439;-73
2022/10/15 02:50:37;;;;;;;22.95;22.05;;;11.60;77.50;;;;;;5027632;28;20037;-73
2022/10/15 02:53:03;;;;;;;18.90;18.10;;;11.40;77.40;;;;;;5027337;28;20026;-74
2022/10/15 02:55:29;;;;;;;18.20;17.50;;;11.30;77.40;;;;;;5010084;28;20026;-73
2022/10/15 02:57:55;;;;;;;16.98;16.27;;;11.10;77.40;;;;;;5027474;28;20525;-74
2022/10/15 03:00:20;;;;;;;18.92;18.13;;;11.00;77.40;;;;;;4993442;28;20048;-73
2022/10/15 03:02:46;;;;;;;14.57;13.98;;;10.80;77.50;;;;;;5027453;28;20110;-73
2022/10/15 03:05:12;;;;;;;15.07;14.48;;;10.80;77.60;;;;;;5027349;28;20030;-74
2022/10/15 03:07:38;;;;;;;15.80;15.10;;;10.60;77.50;;;;;;5027285;28;20396;-74
2022/10/15 03:10:04;;;;;;;14.57;13.98;;;10.50;77.50;;;;;;4993380;28;20136;-73
2022/10/15 03:12:30;;;;;;;14.70;14.10;;;10.40;77.50;;;;;;4992677;28;20458;-74
2022/10/15 03:14:56;;;;;;;16.83;16.13;;;10.40;77.60;;;;;;5027224;28;20112;-73
2022/10/15 03:17:21;;;;;;;17.73;17.02;;;10.30;77.70;;;;;;5009606;28;20484;-73
2022/10/15 03:19:47;;;;;;;16.10;15.40;;;10.20;77.80;;;;;;5009730;28;20049;-74
2022/10/15 03:22:13;;;;;;;16.50;15.80;;;10.20;77.80;;;;;;5026076;28;20539;-73
2022/10/15 03:24:39;;;;;;;16.88;16.17;;;10.10;77.60;;;;;;5027180;28;20403;-73
2022/10/15 03:27:04;;;;;;;16.38;15.68;;;10.00;77.60;;;;;;5009432;28;20449;-73
2022/10/15 03:29:30;;;;;;;17.33;16.63;;;10.00;77.70;;;;;;5027198;28;20040;-73
2022/10/15 03:31:56;;;;;;;17.13;16.42;;;10.00;77.70;;;;;;5027137;28;20051;-74
2022/10/15 03:34:21;;;;;;;19.38;18.58;;;10.00;77.60;;;;;;5009575;28;20029;-73
2022/10/15 03:36:47;;;;;;;19.92;19.13;;;10.00;77.60;;;;;;5009421;28;20069;-74
2022/10/15 03:39:13;;;;;;;22.35;21.45;;;10.00;77.50;;;;;;5026981;28;20108;-73
2022/10/15 03:41:39;;;;;;;20.55;19.75;;;10.00;77.50;;;;;;5027084;28;20037;-74
2022/10/15 03:44:06;;;;;;;21.65;20.75;;;10.00;77.50;;;;;;5027080;28;20468;-73
2022/10/15 03:46:32;;;;;;;23.25;22.35;;;10.10;77.50;;;;;;5027382;28;20030;-73
2022/10/15 03:48:58;;;;;;;23.58;22.67;;;10.10;77.50;;;;;;5026698;28;20108;-73
2022/10/15 03:51:24;;;;;;;21.63;20.73;;;10.10;77.40;;;;;;5026930;28;20030;-73
2022/10/15 03:53:50;;;;;;;24.05;23.13;;;10.10;77.40;;;;;;5026828;28;20036;-73
2022/10/15 03:56:15;;;;;;;19.40;18.60;;;10.00;77.30;;;;;;5026991;28;20160;-73
2022/10/15 03:58:41;;;;;;;17.73;17.02;;;10.00;77.30;;;;;;5009273;28;20088;-73
2022/10/15 04:01:13;;;;;;;20.17;19.38;;;10.00;77.30;;;;;;5027037;28;20462;-73
2022/10/15 04:03:39;;;;;;;21.60;20.70;;;9.80;77.40;;;;;;5027311;28;20032;-73
2022/10/15 04:06:05;;;;;;;19.88;19.08;;;9.80;77.30;;;;;;5026606;28;20029;-73
2022/10/15 04:08:31;;;;;;;;;;;9.70;77.40;;;;;;5027176;28;20068;-73
2022/10/15 04:10:58;;;;;;;20.80;20.00;;;9.70;77.40;;;;;;5009254;28;19913;-74
2022/10/15 04:13:24;;;;;;;26.42;25.42;;;9.60;77.20;;;;;;5026726;28;20112;-73
2022/10/15 04:15:50;;;;;;;27.27;26.27;;;9.50;77.20;;;;;;5026807;28;20025;-73
2022/10/15 04:18:16;;;;;;;29.77;28.67;;;9.40;77.20;;;;;;5008784;28;20132;-73
2022/10/15 04:20:41;;;;;;;34.28;32.97;;;9.40;77.40;;;;;;5008933;28;20040;-74
2022/10/15 04:23:08;;;;;;;32.53;31.33;;;9.30;77.30;;;;;;5026684;28;20037;-73
2022/10/15 04:25:35;;;;;;;29.55;28.45;;;9.20;77.40;;;;;;5029177;28;20479;-74
2022/10/15 04:28:01;;;;;;;25.83;24.83;;;9.20;77.50;;;;;;5012674;28;20061;-73
2022/10/15 04:30:27;;;;;;;30.05;28.95;;;9.20;77.60;;;;;;5030485;28;20072;-74
2022/10/15 04:32:53;;;;;;;26.75;25.75;;;9.20;77.60;;;;;;5030102;28;20594;-73
2022/10/15 04:35:19;;;;;;;28.77;27.67;;;9.10;77.50;;;;;;5012401;28;20029;-73
2022/10/15 04:37:45;;;;;;;28.95;27.85;;;9.10;77.60;;;;;;5029863;28;20030;-73
2022/10/15 04:40:12;;;;;;;31.10;29.90;;;9.00;77.60;;;;;;5012216;28;20047;-73
2022/10/15 04:42:38;;;;;;;32.15;30.95;;;9.00;77.60;;;;;;5012126;28;20079;-73
2022/10/15 04:45:05;;;;;;;33.70;32.40;;;9.00;77.60;;;;;;5012391;28;20034;-73
2022/10/15 04:47:31;;;;;;;31.00;29.80;;;9.00;77.60;;;;;;5011847;28;20508;-73
2022/10/15 04:49:56;;;;;;;30.55;29.40;;;8.90;77.60;;;;;;5029778;28;20068;-73
2022/10/15 04:52:22;;;;;;;33.10;31.88;;;8.90;77.60;;;;;;5029654;28;20041;-73
2022/10/15 04:54:48;;;;;;;29.60;28.50;;;8.90;77.60;;;;;;5011850;28;20025;-73
2022/10/15 04:57:14;;;;;;;32.35;31.15;;;8.90;77.70;;;;;;5011789;28;20037;-73
2022/10/15 04:59:41;;;;;;;29.15;28.05;;;8.80;77.60;;;;;;5011840;28;20322;-73
2022/10/15 05:02:06;;;;;;;;;;;8.90;77.70;;;;;;5029862;28;20065;-73
2022/10/15 05:04:32;;;;;;;28.80;27.70;;;8.80;77.70;;;;;;5029453;28;20379;-73
2022/10/15 05:06:58;;;;;;;28.25;27.15;;;8.80;77.60;;;;;;5011735;28;20610;-73
2022/10/15 05:09:23;;;;;;;26.35;25.35;;;8.80;77.60;;;;;;5029457;28;20036;-73
2022/10/15 05:11:49;;;;;;;27.95;26.85;;;8.80;77.60;;;;;;5011568;28;20489;-73
2022/10/15 05:14:15;;;;;;;25.98;24.98;;;8.80;77.60;;;;;;5029332;28;20081;-73
2022/10/15 05:16:41;;;;;;;25.05;24.05;;;8.80;77.70;;;;;;5029338;28;20029;-73
2022/10/15 05:19:07;;;;;;;23.85;22.95;;;8.80;77.70;;;;;;5011507;28;20091;-73
2022/10/15 05:21:34;;;;;;;21.85;20.95;;;8.80;77.70;;;;;;5011409;28;20029;-73
2022/10/15 05:24:00;;;;;;;21.63;20.73;;;8.80;77.70;;;;;;5029168;28;20040;-73
2022/10/15 05:26:28;;;;;;;24.15;23.25;;;8.70;77.70;;;;;;5011215;28;20116;-74
2022/10/15 05:28:56;;;;;;;22.35;21.45;;;8.70;77.70;;;;;;5011114;28;20025;-73
2022/10/15 05:31:24;;;;;;;22.48;21.58;;;8.70;77.70;;;;;;5028862;28;20039;-74
2022/10/15 05:33:51;;;;;;;19.92;19.13;;;8.70;77.70;;;;;;5028805;28;20443;-73
2022/10/15 05:36:18;;;;;;;23.42;22.52;;;8.70;77.80;;;;;;5029178;28;20025;-74
2022/10/15 05:38:48;;;;;;;21.50;20.65;;;8.70;77.80;;;;;;5028698;28;20042;-73
2022/10/15 05:41:14;;;;;;;20.83;20.02;;;8.60;77.70;;;;;;5010952;28;20034;-73
2022/10/15 05:43:40;;;;;;;;;;;8.60;77.70;;;;;;5011444;28;20064;-73
2022/10/15 05:46:06;;;;;;;19.55;18.75;;;8.60;77.70;;;;;;5028725;28;19913;-73
2022/10/15 05:48:32;;;;;;;18.60;17.80;;;8.60;77.70;;;;;;5011002;28;20037;-73
2022/10/15 05:51:05;;;;;;;21.83;20.92;;;8.60;77.70;;;;;;5028661;28;20108;-73
2022/10/15 05:53:30;;;;;;;19.30;18.50;;;8.60;77.70;;;;;;5011271;28;20064;-73
2022/10/15 05:55:57;;;;;;;20.75;19.95;;;8.60;77.80;;;;;;5028611;28;20081;-73
2022/10/15 05:58:24;;;;;;;18.55;17.80;;;8.60;77.80;;;;;;5010376;28;20029;-73
2022/10/15 06:00:59;;;;;;;20.05;19.25;;;8.60;78.10;;;;;;5010511;28;20104;-73
2022/10/15 06:03:27;;;;;;;20.73;19.92;;;8.60;77.80;;;;;;5028427;28;20029;-73
2022/10/15 06:05:52;;;;;;;20.67;19.88;;;8.60;77.80;;;;;;5028281;28;20112;-73
2022/10/15 06:08:19;;;;;;;22.27;21.38;;;8.60;77.80;;;;;;5010400;28;20448;-72
2022/10/15 06:10:45;;;;;;;19.65;18.85;;;8.60;77.80;;;;;;5028223;28;20034;-72
2022/10/15 06:13:11;;;;;;;;;;;8.60;77.80;;;;;;5010778;28;20132;-72
2022/10/15 06:15:45;;;;;;;20.27;19.48;;;8.60;77.90;;;;;;5010398;28;20315;-72
2022/10/15 06:18:14;;;;;;;18.90;18.10;;;8.60;77.80;;;;;;5028045;28;20029;-72
2022/10/15 06:20:41;;;;;;;20.45;19.65;;;8.60;77.80;;;;;;4994284;28;20022;-72
2022/10/15 06:23:08;;;;;;;18.38;17.63;;;8.60;77.80;;;;;;5027833;28;20025;-72
2022/10/15 06:25:33;;;;;;;19.35;18.55;;;8.60;77.80;;;;;;5028105;28;20021;-72
2022/10/15 06:28:04;;;;;;;19.88;19.08;;;8.60;77.90;;;;;;5027867;28;20388;-72
2022/10/15 06:30:30;;;;;;;16.67;15.98;;;8.60;77.90;;;;;;5027658;28;20112;-72
2022/10/15 06:32:57;;;;;;;17.08;16.38;;;8.60;78.00;;;;;;5027700;28;20503;-72
2022/10/15 06:35:24;;;;;;;15.75;15.05;;;8.70;78.00;;;;;;5027740;28;20059;-72
2022/10/15 06:37:51;;;;;;;17.80;17.10;;;8.70;78.00;;;;;;4993509;28;20037;-73
2022/10/15 06:40:17;;;;;;;15.98;15.27;;;8.70;77.90;;;;;;5027670;28;20127;-72
2022/10/15 06:42:43;;;;;;;16.40;15.70;;;8.80;77.90;;;;;;5027605;28;20104;-72
2022/10/15 06:45:09;;;;;;;14.18;13.57;;;8.80;77.90;;;;;;5027647;28;20034;-72
2022/10/15 06:47:36;;;;;;;15.60;14.90;;;8.80;77.90;;;;;;5009255;28;20128;-73
2022/10/15 06:50:04;;;;;;;14.25;13.65;;;8.80;77.90;;;;;;5009898;28;20148;-72
2022/10/15 06:52:30;;;;;;;15.63;14.93;;;8.80;77.90;;;;;;5027323;28;20037;-73
2022/10/15 06:54:56;;;;;;;15.60;14.90;;;8.80;77.90;;;;;;5027345;28;20091;-73
2022/10/15 06:57:24;;;;;;;14.27;13.68;;;8.80;77.90;;;;;;5027213;28;20033;-73
2022/10/15 06:59:50;;;;;;;14.90;14.30;;;8.80;77.90;;;;;;5027135;28;20021;-73
2022/10/15 07:02:18;;;;;;;14.20;13.60;;;8.80;77.90;;;;;;5027296;28;20451;-73
2022/10/15 07:04:44;;;;;;;13.88;13.27;;;8.80;77.90;;;;;;5027334;28;20034;-74
2022/10/15 07:07:10;;;;;;;14.55;13.95;;;8.80;77.90;;;;;;5027231;28;20411;-73
2022/10/15 07:09:36;;;;;;;14.10;13.50;;;8.80;77.90;;;;;;5009511;28;20026;-73
2022/10/15 07:12:02;;;;;;;14.55;13.95;;;8.80;77.90;;;;;;5027355;28;20037;-73
2022/10/15 07:14:27;;;;;;;13.85;13.25;;;8.80;77.90;;;;;;5027131;28;20029;-73
2022/10/15 07:16:53;;;;;;;13.50;12.90;;;8.80;77.90;;;;;;5027056;28;20116;-73
2022/10/15 07:19:19;;;;;;;13.57;12.98;;;8.80;78.00;;;;;;5026990;28;20475;-73
2022/10/15 07:21:44;;;;;;;13.50;12.90;;;8.90;78.00;;;;;;5009396;28;20117;-72
2022/10/15 07:24:10;;;;;;;12.57;11.98;;;8.90;78.00;;;;;;5026839;28;20045;-73
2022/10/15 07:26:36;;;;;;;11.75;11.25;;;9.00;78.00;;;;;;5026840;28;20091;-73
2022/10/15 07:29:02;;;;;;;12.80;12.20;;;9.00;78.10;;;;;;5009339;28;20213;-73
2022/10/15 07:31:28;;;;;;;;;;;9.10;78.10;;;;;;5027430;28;20112;-72
2022/10/15 07:33:54;;;;;;;9.85;9.35;;;9.20;78.20;;;;;;5026752;28;20442;-73
2022/10/15 07:36:20;;;;;;;11.02;10.52;;;9.30;78.10;;;;;;5026738;28;20025;-73
2022/10/15 07:38:45;;;;;;;10.25;9.75;;;9.40;78.10;;;;;;5026510;28;20057;-73
2022/10/15 07:41:11;;;;;;;10.15;9.65;;;9.50;78.00;;;;;;5027098;28;20037;-73
2022/10/15 07:43:37;;;;;;;8.25;7.85;;;9.60;78.00;;;;;;5026787;28;20026;-73
2022/10/15 07:46:03;;;;;;;9.00;8.60;;;9.70;78.30;;;;;;5009103;28;20387;-73
2022/10/15 07:48:30;;;;;;;8.27;7.88;;;9.90;78.30;;;;;;5026839;28;20111;-72
2022/10/15 07:51:00;;;;;;;6.60;6.20;;;9.90;78.20;;;;;;5008593;28;20044;-73
2022/10/15 07:53:27;;;;;;;7.22;6.82;;;10.00;78.20;;;;;;5026127;28;20034;-73
2022/10/15 07:55:52;;;;;;;6.72;6.32;;;10.10;78.40;;;;;;5026282;28;20160;-73
2022/10/15 07:58:18;;;;;;;6.82;6.43;;;10.30;78.50;;;;;;5026570;28;20523;-72
2022/10/15 08:00:44;;;;;;;5.78;5.47;;;10.50;78.20;;;;;;5029512;28;20018;-72
2022/10/15 08:03:10;;;;;;;5.40;5.10;;;10.70;78.20;;;;;;4996723;28;20056;-73
2022/10/15 08:05:36;;;;;;;5.78;5.47;;;10.80;78.30;;;;;;5030744;28;20029;-73
2022/10/15 08:08:02;;;;;;;4.32;4.03;;;10.90;78.40;;;;;;5030286;28;20049;-73
2022/10/15 08:10:28;;;;;;;3.90;3.60;;;11.10;78.50;;;;;;4995586;28;20037;-73
2022/10/15 08:12:53;;;;;;;4.97;4.68;;;11.50;79.00;;;;;;5012002;28;20385;-72
2022/10/15 08:15:19;;;;;;;4.60;4.30;;;11.70;78.40;;;;;;5012249;28;20041;-73
2022/10/15 08:17:45;;;;;;;5.35;5.05;;;11.90;78.40;;;;;;5012366;28;20026;-73
2022/10/15 08:20:11;;;;;;;5.97;5.68;;;12.00;78.20;;;;;;5012179;28;20434;-73
2022/10/15 08:22:37;;;;;;;;;;;12.20;78.30;;;;;;5030617;28;20059;-74
2022/10/15 08:25:03;;;;;;;7.22;6.82;;;12.30;78.00;;;;;;5011884;28;19905;-73
2022/10/15 08:27:29;;;;;;;7.90;7.50;;;12.40;77.60;;;;;;5029559;28;20112;-75
2022/10/15 08:29:54;;;;;;;8.55;8.15;;;12.30;77.10;;;;;;5030021;28;20129;-74
2022/10/15 08:32:20;;;;;;;8.98;8.57;;;12.10;77.10;;;;;;5029567;28;20107;-73
2022/10/15 08:34:46;;;;;;;8.40;8.00;;;12.00;77.40;;;;;;5029718;28;20410;-73
2022/10/15 08:37:12;;;;;;;6.95;6.55;;;12.00;77.90;;;;;;5029557;28;20044;-72
2022/10/15 08:39:37;;;;;;;7.50;7.10;;;12.40;79.00;;;;;;5011387;28;20053;-72
2022/10/15 08:42:19;;;;;;;7.35;6.95;;;12.60;78.30;;;;;;5012043;28;20034;-72
2022/10/15 08:44:55;;;;;;;7.60;7.20;;;13.10;78.90;;;;;;5029631;28;20071;-72
2022/10/15 08:47:27;;;;;;;4.82;4.53;;;13.50;78.30;;;;;;5029430;28;20048;-72
2022/10/15 08:49:54;;;;;;;6.97;6.57;;;13.60;77.60;;;;;;5029496;28;20396;-72
2022/10/15 08:52:41;;;;;;;5.30;5.00;;;13.50;77.30;;;;;;5029014;28;20108;-72
2022/10/15 08:55:13;;;;;;;6.20;5.90;;;13.30;77.10;;;;;;5028996;28;20492;-73
2022/10/15 08:57:45;;;;;;;6.90;6.50;;;13.10;77.10;;;;;;5028742;28;20581;-70
2022/10/15 09:00:23;;;;;;;5.55;5.25;;;13.00;77.40;;;;;;5010987;28;20491;-71
2022/10/15 09:03:10;;;;;;;3.80;3.50;;;13.10;78.70;;;;;;5029258;28;20056;-71
2022/10/15 09:05:51;;;;;;;2.53;2.33;;;13.90;80.20;;;;;;5011527;28;20033;-72
2022/10/15 09:08:34;;;;;;;2.72;2.53;;;15.30;80.40;;;;;;5028853;28;20061;-72
2022/10/15 09:11:12;;;;;;;1.67;1.58;;;16.70;80.20;;;;;;5028328;28;20107;-72
2022/10/15 09:13:40;;;;;;;0.88;0.88;;;18.00;79.60;;;;;;5028553;28;20072;-72
2022/10/15 09:16:18;;;;;;;1.52;1.42;;;18.40;77.10;;;;;;5012330;28;20387;-71
2022/10/15 09:18:48;;;;;;;2.35;2.15;;;17.70;75.40;;;;;;5029472;28;20029;-72
2022/10/15 09:21:14;;;;;;;2.25;2.05;;;16.80;75.80;;;;;;5030215;28;20093;-72
2022/10/15 09:23:42;;;;;;;2.75;2.55;;;16.00;76.00;;;;;;5029652;28;20027;-72
2022/10/15 09:26:16;;;;;;;2.92;2.72;;;15.30;76.10;;;;;;5012447;28;20091;-73
2022/10/15 09:29:00;;;;;;;3.42;3.13;;;14.50;76.40;;;;;;5032087;28;20440;-73
2022/10/15 09:31:38;;;;;;;4.70;4.40;;;13.90;76.90;;;;;;5022777;28;20159;-73
2022/10/15 09:34:17;;;;;;;4.68;4.38;;;13.40;77.30;;;;;;5032799;28;20031;-73
2022/10/15 09:36:54;;;;;;;5.30;5.00;;;13.00;77.70;;;;;;5036646;28;20151;-73
2022/10/15 09:39:56;;;;;;;5.68;5.38;;;12.80;78.10;;;;;;5037548;28;20049;-73
2022/10/15 09:42:37;;;;;;;5.70;5.40;;;12.60;78.40;;;;;;5015105;28;20068;-73
2022/10/15 09:45:10;;;;;;;4.78;4.47;;;12.60;78.60;;;;;;5048806;28;20104;-73
2022/10/15 09:47:42;;;;;;;4.40;4.10;;;12.80;79.50;;;;;;5025963;28;20056;-74
2022/10/15 09:50:11;;;;;;;3.47;3.20;;;13.40;80.00;;;;;;5031832;28;20028;-74
2022/10/15 09:52:59;;;;;;;3.80;3.50;;;14.30;80.50;;;;;;5031780;28;20040;-74
2022/10/15 09:55:52;;;;;;;2.60;2.40;;;14.70;78.60;;;;;;5040001;28;20020;-73
2022/10/15 09:58:27;;;;;;;2.00;1.90;;;15.10;79.60;;;;;;5035250;28;20025;-73
2022/10/15 10:00:56;;;;;;;1.65;1.55;;;16.10;79.80;;;;;;5031313;28;20021;-74
2022/10/15 10:03:25;;;;;;;1.60;1.50;;;16.40;78.50;;;;;;5049273;28;20107;-73
2022/10/15 10:05:59;;;;;;;1.63;1.52;;;16.30;77.70;;;;;;5030906;28;20032;-75
2022/10/15 10:08:28;;;;;;;1.40;1.30;;;16.20;77.50;;;;;;5049503;28;20028;-76
2022/10/15 10:11:02;;;;;;;1.00;1.00;;;15.80;77.30;;;;;;5049131;28;20032;-74
2022/10/15 10:13:44;;;;;;;0.90;0.90;;;15.40;77.30;;;;;;5048127;28;20096;-73
2022/10/15 10:16:12;;;;;;;1.10;1.10;;;15.00;77.40;;;;;;5048430;28;20104;-73
2022/10/15 10:18:38;;;;;;;1.40;1.30;;;14.60;77.50;;;;;;5048376;28;20028;-73
2022/10/15 10:21:22;;;;;;;1.30;1.20;;;14.30;77.80;;;;;;5048020;28;20051;-72
2022/10/15 10:23:47;;;;;;;1.40;1.30;;;14.10;78.00;;;;;;5048188;28;20494;-73
2022/10/15 10:26:14;;;;;;;1.40;1.30;;;13.90;78.00;;;;;;5030200;28;20037;-71
2022/10/15 10:28:50;;;;;;;;;;;13.70;78.10;;;;;;5048655;28;20029;-74
2022/10/15 10:31:16;;;;;;;1.40;1.30;;;13.60;78.30;;;;;;5048842;28;19905;-76
2022/10/15 10:33:43;;;;;;;;;;;13.60;78.40;;;;;;5030674;28;20044;-73
2022/10/15 10:36:25;;;;;;;1.30;1.20;;;13.50;78.40;;;;;;5048149;28;20122;-73
2022/10/15 10:39:12;;;;;;;1.40;1.30;;;13.50;78.30;;;;;;5047791;28;20147;-73
2022/10/15 10:41:58;;;;;;;1.90;1.80;;;13.50;78.30;;;;;;5030295;28;20394;-71
2022/10/15 10:44:38;;;;;;;1.58;1.48;;;13.60;78.40;;;;;;5047637;28;20566;-73
2022/10/15 10:47:07;;;;;;;1.63;1.52;;;13.70;78.60;;;;;;5047899;28;20665;-73
2022/10/15 10:49:52;;;;;;;2.08;1.90;;;13.80;78.60;;;;;;5047976;28;20440;-73
2022/10/15 10:52:37;;;;;;;1.10;1.10;;;14.00;79.00;;;;;;5047718;28;20462;-73
2022/10/15 10:55:05;;;;;;;0.90;0.90;;;15.10;80.80;;;;;;5047466;28;20025;-73
2022/10/15 10:57:39;;;;;;;0.95;0.95;;;16.00;80.00;;;;;;5029754;28;20064;-72
2022/10/15 11:00:06;;;;;;;1.00;1.00;;;16.40;78.70;;;;;;5030149;28;20082;-72
2022/10/15 11:02:37;;;;;;;0.47;0.47;;;16.80;79.10;;;;;;5029494;28;20035;-70
2022/10/15 11:05:03;;;;;;;0.03;0.03;;;17.50;80.00;;;;;;5047234;28;20475;-71
2022/10/15 11:08:04;;;;;;;0.00;0.00;;;18.60;80.20;;;;;;5047843;28;20029;-72
2022/10/15 11:10:58;;;;;;;0.52;0.28;;;19.60;79.80;;;;;;5029342;28;20040;-73
2022/10/15 11:13:28;;;;;;;0.00;0.00;;;20.20;79.30;;;;;;5047614;28;20016;-73
2022/10/15 11:16:17;;;;;;;0.00;0.00;;;20.80;79.10;;;;;;5047684;28;20104;-72
2022/10/15 11:18:55;;;;;;;0.00;0.00;;;20.90;78.60;;;;;;5038638;28;20041;-72
2022/10/15 11:21:53;;;;;;;0.00;0.00;;;20.80;78.60;;;;;;5040936;28;20021;-77
2022/10/15 11:24:41;;;;;;;0.00;0.00;;;20.80;78.40;;;;;;5027727;28;20036;-74
2022/10/15 11:27:33;;;;;;;0.00;0.00;;;20.10;77.40;;;;;;5029655;28;20041;-70
2022/10/15 11:30:27;;;;;;;0.00;0.00;;;19.20;77.50;;;;;;5046944;28;20021;-72
2022/10/15 11:33:26;;;;;;;0.00;0.00;;;18.40;78.00;;;;;;5047605;28;20024;-72
2022/10/15 11:36:22;;;;;;;0.00;0.00;;;17.90;78.50;;;;;;5050925;28;20094;-73
2022/10/15 11:39:14;;;;;;;0.00;0.00;;;17.50;79.60;;;;;;5032304;28;20099;-72
2022/10/15 11:41:48;;;;;;;0.00;0.00;;;17.80;80.40;;;;;;5032707;28;20372;-73
2022/10/15 11:44:28;;;;;;;0.00;0.00;;;18.00;79.80;;;;;;5051293;28;20025;-78
2022/10/15 11:47:00;;;;;;;0.00;0.00;;;17.80;78.70;;;;;;5034075;28;20032;-75
2022/10/15 11:49:38;;;;;;;0.00;0.00;;;17.40;78.50;;;;;;5050723;28;20032;-73
2022/10/15 11:52:22;;;;;;;0.00;0.00;;;17.30;79.90;;;;;;5050588;28;20166;-72
2022/10/15 11:55:00;;;;;;;0.00;0.00;;;17.80;80.80;;;;;;5040455;28;20074;-71
2022/10/15 11:57:30;;;;;;;0.00;0.00;;;18.30;80.30;;;;;;5039344;28;20022;-71
2022/10/15 12:00:01;;;;;;;0.00;0.00;;;18.40;79.50;;;;;;5022088;28;20021;-72
2022/10/15 12:02:35;;;;;;;0.00;0.00;;;18.40;79.60;;;;;;5037444;28;20452;-72
2022/10/15 12:05:08;;;;;;;0.00;0.00;;;18.40;79.80;;;;;;5021399;28;20369;-71
2022/10/15 12:07:45;;;;;;;0.00;0.00;;;18.20;79.20;;;;;;5039324;28;20018;-72
2022/10/15 12:10:11;;;;;;;0.00;0.00;;;17.90;79.10;;;;;;5039319;28;20032;-72
2022/10/15 12:12:55;;;;;;;0.00;0.00;;;17.60;78.60;;;;;;5022760;28;20037;-72
2022/10/15 12:15:27;;;;;;;0.00;0.00;;;17.20;78.40;;;;;;5041517;28;20029;-70
2022/10/15 12:18:29;;;;;;;0.00;0.00;;;16.90;78.30;;;;;;5039212;28;20020;-71
2022/10/15 12:20:57;;;;;;;0.00;0.00;;;16.50;78.10;;;;;;5005914;28;20055;-71
2022/10/15 12:23:40;;;;;;;0.00;0.00;;;15.80;77.20;;;;;;5000408;28;20116;-71
2022/10/15 12:26:26;;;;;;;0.10;0.10;;;15.20;77.20;;;;;;5034586;28;20061;-71
2022/10/15 12:28:55;;;;;;;0.20;0.20;;;14.40;77.10;;;;;;5010590;28;20022;-71
2022/10/15 12:31:22;;;;;;;0.50;0.50;;;13.80;77.30;;;;;;5010607;28;20048;-71
2022/10/15 12:33:48;;;;;;;1.55;1.45;;;13.40;77.60;;;;;;5010524;28;20048;-72
2022/10/15 12:36:29;;;;;;;2.53;2.33;;;12.90;77.30;;;;;;5011124;28;20062;-73
2022/10/15 12:39:04;;;;;;;4.78;4.47;;;12.40;77.30;;;;;;4993577;28;20157;-74
2022/10/15 12:41:40;;;;;;;6.25;5.93;;;11.80;77.20;;;;;;5010769;28;20096;-73
2022/10/15 12:44:33;;;;;;;6.53;6.13;;;11.40;77.70;;;;;;4993298;28;20034;-77
2022/10/15 12:46:59;;;;;;;8.35;7.95;;;11.10;78.30;;;;;;5007257;28;20130;-76
2022/10/15 12:49:25;;;;;;;9.00;8.60;;;10.90;78.50;;;;;;5010475;28;20075;-74
2022/10/15 12:51:55;;;;;;;9.98;9.48;;;10.90;78.70;;;;;;5010788;28;20476;-80
2022/10/15 12:54:40;;;;;;;10.23;9.73;;;10.90;78.70;;;;;;5010212;28;20546;-77
2022/10/15 12:57:33;;;;;;;11.27;10.77;;;11.00;78.90;;;;;;5010395;28;20030;-74
2022/10/15 13:00:00;;;;;;;11.90;11.40;;;11.20;79.20;;;;;;4992778;28;20483;-75
2022/10/15 13:02:44;;;;;;;10.93;10.43;;;11.60;79.50;;;;;;5011415;28;20037;-75
2022/10/15 13:05:26;;;;;;;9.82;9.32;;;12.10;79.00;;;;;;5010882;28;20033;-78